createdAt,value
2019-03-13T00:01:42.542Z,2.08
2019-03-13T00:04:11.647Z,3.65
2019-03-13T00:06:40.844Z,4.83
2019-03-13T00:09:10.237Z,4.12
2019-03-13T00:11:39.336Z,1.98
2019-03-13T00:14:08.459Z,2.92
2019-03-13T00:16:37.601Z,2.60
2019-03-13T00:19:06.875Z,3.30
2019-03-13T00:21:36.091Z,2.10
2019-03-13T00:24:05.191Z,2.20
2019-03-13T00:26:34.301Z,3.42
2019-03-13T00:29:03.433Z,4.17
2019-03-13T00:31:32.541Z,3.80
2019-03-13T00:34:01.654Z,1.80
2019-03-13T00:36:30.776Z,1.82
2019-03-13T00:38:59.891Z,4.12
2019-03-13T00:41:29.078Z,3.90
2019-03-13T00:43:58.197Z,3.65
2019-03-13T00:46:27.301Z,3.27
2019-03-13T00:48:56.435Z,2.52
2019-03-13T00:51:25.643Z,7.05
2019-03-13T00:53:54.746Z,2.00
2019-03-13T00:56:23.862Z,2.40
2019-03-13T00:58:52.991Z,3.80
2019-03-13T01:01:23.746Z,1.90
2019-03-13T01:03:56.622Z,4.40
2019-03-13T01:06:27.462Z,4.17
2019-03-13T01:08:56.567Z,2.20
2019-03-13T01:11:27.309Z,2.90
2019-03-13T01:13:56.907Z,3.20
2019-03-13T01:16:26.013Z,3.50
2019-03-13T01:18:55.126Z,2.58
2019-03-13T01:21:24.324Z,3.37
2019-03-13T01:23:53.432Z,3.27
2019-03-13T01:26:22.547Z,1.87
2019-03-13T01:28:51.670Z,2.85
2019-03-13T01:31:28.456Z,3.47
2019-03-13T01:33:59.294Z,5.95
2019-03-13T01:36:28.397Z,4.83
2019-03-13T01:38:57.506Z,3.92
2019-03-13T01:41:26.649Z,2.22
2019-03-13T01:43:55.738Z,2.37
2019-03-13T01:46:24.849Z,2.65
2019-03-13T01:48:54.038Z,3.60
2019-03-13T01:51:23.153Z,3.17
2019-03-13T01:53:52.263Z,3.37
2019-03-13T01:56:21.385Z,2.98
2019-03-13T01:58:50.494Z,4.50
2019-03-13T02:01:19.600Z,2.22
2019-03-13T02:03:48.802Z,3.80
2019-03-13T02:06:17.908Z,2.75
2019-03-13T02:08:47.022Z,5.42
2019-03-13T02:11:16.224Z,4.58
2019-03-13T02:13:45.330Z,3.85
2019-03-13T02:16:14.445Z,2.65
2019-03-13T02:18:43.566Z,2.98
2019-03-13T02:21:12.682Z,6.72
2019-03-13T02:23:41.809Z,2.27
2019-03-13T02:26:11.011Z,3.98
2019-03-13T02:28:40.108Z,1.87
2019-03-13T02:31:09.227Z,2.85
2019-03-13T02:33:38.342Z,4.12
2019-03-13T02:36:07.451Z,3.77
2019-03-13T02:38:36.562Z,5.22
2019-03-13T02:41:05.772Z,3.47
2019-03-13T02:43:34.900Z,4.65
2019-03-13T02:46:03.988Z,5.53
2019-03-13T02:48:33.140Z,3.67
2019-03-13T02:51:02.232Z,3.42
2019-03-13T02:53:31.342Z,7.20
2019-03-13T02:56:00.540Z,3.45
2019-03-13T02:58:29.650Z,3.75
2019-03-13T03:01:00.390Z,6.70
2019-03-13T03:03:33.802Z,4.33
2019-03-13T03:06:02.907Z,5.08
2019-03-13T03:08:32.095Z,4.78
2019-03-13T03:11:01.293Z,3.20
2019-03-13T03:13:30.415Z,4.05
2019-03-13T03:15:59.516Z,4.20
2019-03-13T03:18:28.635Z,3.55
2019-03-13T03:20:57.741Z,5.12
2019-03-13T03:23:26.924Z,4.47
2019-03-13T03:25:56.121Z,3.60
2019-03-13T03:28:27.153Z,5.92
2019-03-13T03:30:56.275Z,6.47
2019-03-13T03:33:25.392Z,5.30
2019-03-13T03:35:54.493Z,8.13
2019-03-13T03:38:23.602Z,6.65
2019-03-13T03:40:52.722Z,3.70
2019-03-13T03:43:38.742Z,8.68
2019-03-13T03:45:52.665Z,7.67
2019-03-13T03:48:21.862Z,3.62
2019-03-13T03:50:50.967Z,3.72
2019-03-13T03:53:20.075Z,4.08
2019-03-13T03:55:49.208Z,6.60
2019-03-13T03:58:18.314Z,5.40
2019-03-13T04:00:47.422Z,6.25
2019-03-13T04:03:16.549Z,6.15
2019-03-13T04:05:45.658Z,3.87
2019-03-13T04:08:14.770Z,5.78
2019-03-13T04:10:44.144Z,6.25
2019-03-13T04:13:13.261Z,7.08
2019-03-13T04:15:42.371Z,7.33
2019-03-13T04:18:11.579Z,4.55
2019-03-13T04:20:40.666Z,5.30
2019-03-13T04:23:09.787Z,4.20
2019-03-13T04:25:38.961Z,5.47
2019-03-13T04:28:08.076Z,5.42
2019-03-13T04:30:37.185Z,7.53
2019-03-13T04:33:06.297Z,7.12
2019-03-13T04:35:35.416Z,6.00
2019-03-13T04:38:04.522Z,7.85
2019-03-13T04:40:33.651Z,4.80
2019-03-13T04:43:02.756Z,6.35
2019-03-13T04:45:31.865Z,6.58
2019-03-13T04:48:01.068Z,5.33
2019-03-13T04:50:30.179Z,6.20
2019-03-13T04:52:59.299Z,3.25
2019-03-13T04:55:28.425Z,5.92
2019-03-13T04:57:57.539Z,9.63
2019-03-13T05:00:26.653Z,6.50
2019-03-13T05:02:55.780Z,9.73
2019-03-13T05:05:42.246Z,6.10
2019-03-13T05:08:25.054Z,4.58
2019-03-13T05:10:54.142Z,7.70
2019-03-13T05:13:23.256Z,6.90
2019-03-13T05:15:52.382Z,6.22
2019-03-13T05:18:21.487Z,6.70
2019-03-13T05:20:50.593Z,7.97
2019-03-13T05:23:19.714Z,6.58
2019-03-13T05:25:48.825Z,8.65
2019-03-13T05:28:21.295Z,8.43
2019-03-13T05:30:52.985Z,10.08
2019-03-13T05:33:21.264Z,5.67
2019-03-13T05:35:50.379Z,7.47
2019-03-13T05:38:19.583Z,10.30
2019-03-13T05:40:48.696Z,6.72
2019-03-13T05:43:17.808Z,7.83
2019-03-13T05:45:46.727Z,13.28
2019-03-13T05:48:15.797Z,9.80
2019-03-13T05:50:44.904Z,6.78
2019-03-13T05:53:14.021Z,6.35
2019-03-13T05:55:43.137Z,10.70
2019-03-13T05:59:44.995Z,13.90
2019-03-13T06:02:14.062Z,15.32
2019-03-13T06:04:43.180Z,13.78
2019-03-13T06:07:14.722Z,17.00
2019-03-13T06:09:43.842Z,12.53
2019-03-13T06:12:12.951Z,17.90
2019-03-13T06:14:43.973Z,13.70
2019-03-13T06:17:13.084Z,17.35
2019-03-13T06:19:42.207Z,14.47
2019-03-13T06:22:11.335Z,14.50
2019-03-13T06:24:40.458Z,12.75
2019-03-13T06:27:09.572Z,11.60
2019-03-13T06:29:38.770Z,13.30
2019-03-13T06:32:07.879Z,10.53
2019-03-13T06:34:37.039Z,9.43
2019-03-13T06:37:06.115Z,15.05
2019-03-13T06:39:35.231Z,10.35
2019-03-13T06:42:04.355Z,12.78
2019-03-13T06:44:33.481Z,13.53
2019-03-13T06:47:02.589Z,12.47
2019-03-13T06:49:31.703Z,11.38
2019-03-13T06:52:00.919Z,12.40
2019-03-13T06:54:30.064Z,8.20
2019-03-13T06:56:59.149Z,8.30
2019-03-13T06:59:54.239Z,12.95
2019-03-13T07:02:11.725Z,14.40
2019-03-13T07:04:42.564Z,17.30
2019-03-13T07:07:13.393Z,16.93
2019-03-13T07:09:47.198Z,12.82
2019-03-13T07:12:17.906Z,11.53
2019-03-13T07:14:48.666Z,22.67
2019-03-13T07:17:22.226Z,17.82
2019-03-13T07:19:59.010Z,12.18
2019-03-13T07:22:29.769Z,17.57
2019-03-13T07:25:01.027Z,11.40
2019-03-13T07:27:37.812Z,12.85
2019-03-13T07:30:18.368Z,14.70
2019-03-13T07:32:49.128Z,10.05
2019-03-13T07:35:25.527Z,12.37
2019-03-13T07:38:05.507Z,11.78
2019-03-13T07:40:51.676Z,11.05
2019-03-13T07:43:22.451Z,13.18
2019-03-13T07:46:09.380Z,11.20
2019-03-13T07:48:40.217Z,9.25
2019-03-13T07:51:10.991Z,16.77
2019-03-13T07:53:44.392Z,15.83
2019-03-13T07:56:15.229Z,13.30
2019-03-13T07:58:57.590Z,12.65
2019-03-13T08:01:28.370Z,11.75
2019-03-13T08:04:04.959Z,11.30
2019-03-13T08:06:46.240Z,13.62
2019-03-13T08:09:19.700Z,8.58
2019-03-13T08:11:53.129Z,9.33
2019-03-13T08:14:23.903Z,16.85
2019-03-13T08:16:57.312Z,11.45
2019-03-13T08:19:40.305Z,8.80
2019-03-13T08:22:20.233Z,11.08
2019-03-13T08:24:57.008Z,11.78
2019-03-13T08:27:27.773Z,16.85
2019-03-13T08:30:20.089Z,9.85
2019-03-13T08:32:58.653Z,10.23
2019-03-13T08:35:38.080Z,12.05
2019-03-13T08:38:08.887Z,10.50
2019-03-13T08:40:42.375Z,11.88
2019-03-13T08:43:15.852Z,15.35
2019-03-13T08:45:55.180Z,16.82
2019-03-13T08:48:37.836Z,16.07
2019-03-13T08:51:11.364Z,22.20
2019-03-13T08:53:42.131Z,22.98
2019-03-13T08:56:18.625Z,21.30
2019-03-13T08:58:58.559Z,24.57
2019-03-13T09:01:45.563Z,16.95
2019-03-13T09:04:28.492Z,18.57
2019-03-13T09:06:59.289Z,20.80
2019-03-13T09:09:45.953Z,22.50
2019-03-13T09:12:16.713Z,21.05
2019-03-13T09:14:50.538Z,22.13
2019-03-13T09:17:29.923Z,21.95
2019-03-13T09:20:15.425Z,23.75
2019-03-13T09:22:55.386Z,19.07
2019-03-13T09:25:26.147Z,25.57
2019-03-13T09:27:56.905Z,18.42
2019-03-13T09:30:36.765Z,15.72
2019-03-13T09:33:16.195Z,16.57
2019-03-13T09:36:05.040Z,23.30
2019-03-13T09:38:44.401Z,12.63
2019-03-13T09:41:17.814Z,15.83
2019-03-13T09:43:54.533Z,14.80
2019-03-13T09:46:40.026Z,19.35
2019-03-13T09:49:14.788Z,13.58
2019-03-13T09:51:50.100Z,10.43
2019-03-13T09:54:20.853Z,11.73
2019-03-13T09:57:07.919Z,10.53
2019-03-13T09:59:44.479Z,11.48
2019-03-13T10:02:15.039Z,12.55
2019-03-13T10:04:45.531Z,8.98
2019-03-13T10:07:24.807Z,10.85
2019-03-13T10:09:58.243Z,10.35
2019-03-13T10:12:45.298Z,10.63
2019-03-13T10:15:18.740Z,16.57
2019-03-13T10:18:04.561Z,11.30
2019-03-13T10:20:41.273Z,14.13
2019-03-13T10:23:12.046Z,11.90
2019-03-13T10:25:42.794Z,10.98
2019-03-13T10:28:13.698Z,16.85
2019-03-13T10:30:50.215Z,13.35
2019-03-13T10:33:21.004Z,18.48
2019-03-13T10:36:00.503Z,15.80
2019-03-13T10:41:13.256Z,15.25
2019-03-13T10:43:44.315Z,14.65
2019-03-13T10:46:30.377Z,8.83
2019-03-13T10:49:12.077Z,9.90
2019-03-13T10:51:45.463Z,5.40
2019-03-13T10:54:25.010Z,7.83
2019-03-13T10:56:55.883Z,8.20
2019-03-13T10:59:26.617Z,8.00
2019-03-13T11:01:57.415Z,10.35
2019-03-13T11:04:44.287Z,13.48
2019-03-13T11:07:28.745Z,9.25
2019-03-13T11:10:02.108Z,11.48
2019-03-13T11:12:32.944Z,7.47
2019-03-13T11:15:12.867Z,7.05
2019-03-13T11:17:49.713Z,6.83
2019-03-13T11:20:23.158Z,7.37
2019-03-13T11:23:12.002Z,8.10
2019-03-13T11:25:51.919Z,7.05
2019-03-13T11:28:40.849Z,7.12
2019-03-13T11:31:23.700Z,9.53
2019-03-13T11:34:03.523Z,14.55
2019-03-13T11:36:50.388Z,7.53
2019-03-13T11:39:43.551Z,5.55
2019-03-13T11:42:23.309Z,4.50
2019-03-13T11:44:57.725Z,4.35
2019-03-13T11:47:41.351Z,7.72
2019-03-13T11:50:10.107Z,7.85
2019-03-13T11:52:43.617Z,4.28
2019-03-13T11:55:14.441Z,8.38
2019-03-13T11:57:45.214Z,4.67
2019-03-13T12:00:18.871Z,5.28
2019-03-13T12:02:49.623Z,6.05
2019-03-13T12:05:36.825Z,4.22
2019-03-13T12:08:07.574Z,3.60
2019-03-13T12:10:44.373Z,4.05
2019-03-13T12:13:21.082Z,4.47
2019-03-13T12:15:57.430Z,6.67
2019-03-13T12:18:34.082Z,4.45
2019-03-13T12:21:13.829Z,5.72
2019-03-13T12:23:47.473Z,2.58
2019-03-13T12:26:20.909Z,5.70
2019-03-13T12:28:54.575Z,7.62
2019-03-13T12:31:34.239Z,5.92
2019-03-13T12:34:07.637Z,3.80
2019-03-13T12:36:50.002Z,5.20
2019-03-13T12:39:20.796Z,5.28
2019-03-13T12:42:07.600Z,3.10
2019-03-13T12:44:54.437Z,4.47
2019-03-13T12:47:30.918Z,3.50
2019-03-13T12:50:10.501Z,5.45
2019-03-13T12:52:41.290Z,9.73
2019-03-13T12:55:24.122Z,6.67
2019-03-13T12:58:00.499Z,8.43
2019-03-13T13:00:49.275Z,6.60
2019-03-13T13:03:35.365Z,9.75
2019-03-13T13:06:17.796Z,8.25
2019-03-13T13:08:51.278Z,10.98
2019-03-13T13:11:34.018Z,6.53
2019-03-13T13:14:04.799Z,8.40
2019-03-13T13:16:41.535Z,5.87
2019-03-13T13:19:10.692Z,9.55
2019-03-13T13:21:39.784Z,11.63
2019-03-13T13:24:08.901Z,5.60
2019-03-13T13:26:38.070Z,9.63
2019-03-13T13:29:07.169Z,6.33
2019-03-13T13:31:36.279Z,7.58
2019-03-13T13:34:05.401Z,5.05
2019-03-13T13:36:34.539Z,7.22
2019-03-13T13:39:04.383Z,4.20
2019-03-13T13:41:33.523Z,5.37
2019-03-13T13:44:02.625Z,5.87
2019-03-13T13:46:31.792Z,7.83
2019-03-13T13:49:00.891Z,8.50
2019-03-13T13:51:33.421Z,7.65
2019-03-13T13:54:02.520Z,4.62
2019-03-13T13:56:31.651Z,6.65
2019-03-13T13:59:00.774Z,5.78
2019-03-13T14:01:29.887Z,11.15
2019-03-13T14:03:59.025Z,7.15
2019-03-13T14:06:28.137Z,8.73
2019-03-13T14:08:57.262Z,8.78
2019-03-13T14:11:26.412Z,7.78
2019-03-13T14:13:55.539Z,8.40
2019-03-13T14:16:24.633Z,8.85
2019-03-13T14:18:53.764Z,5.80
2019-03-13T14:21:22.900Z,5.17
2019-03-13T14:23:52.026Z,4.95
2019-03-13T14:26:21.235Z,9.55
2019-03-13T14:28:50.376Z,9.65
2019-03-13T14:31:19.497Z,10.98
2019-03-13T14:33:48.629Z,7.95
2019-03-13T14:36:17.781Z,10.32
2019-03-13T14:38:47.142Z,5.70
2019-03-13T14:41:16.269Z,8.55
2019-03-13T14:43:45.379Z,9.13
2019-03-13T14:46:14.486Z,6.92
2019-03-13T14:48:43.658Z,12.73
2019-03-13T14:51:12.788Z,8.83
2019-03-13T14:53:41.898Z,19.15
2019-03-13T14:56:11.037Z,10.68
2019-03-13T14:58:40.173Z,9.40
2019-03-13T15:01:09.263Z,31.73
2019-03-13T15:03:41.262Z,10.98
2019-03-13T15:06:09.219Z,14.43
2019-03-13T15:08:38.348Z,33.60
2019-03-13T15:11:07.762Z,22.27
2019-03-13T15:13:36.872Z,31.70
2019-03-13T15:16:05.983Z,18.98
2019-03-13T15:18:35.112Z,22.67
2019-03-13T15:21:04.223Z,14.47
2019-03-13T15:23:33.380Z,19.02
2019-03-13T15:26:02.474Z,10.13
2019-03-13T15:28:31.590Z,12.35
2019-03-13T15:31:00.704Z,15.55
2019-03-13T15:33:29.855Z,12.68
2019-03-13T15:35:58.973Z,6.95
2019-03-13T15:38:28.076Z,21.23
2019-03-13T15:40:58.209Z,16.25
2019-03-13T15:43:27.187Z,21.60
2019-03-13T15:45:56.274Z,15.23
2019-03-13T15:48:25.411Z,14.87
2019-03-13T15:50:54.555Z,20.17
2019-03-13T15:53:23.657Z,12.75
2019-03-13T15:57:21.593Z,13.55
2019-03-13T15:59:50.667Z,16.07
2019-03-13T16:02:19.563Z,14.78
2019-03-13T16:04:48.648Z,8.40
2019-03-13T16:07:17.809Z,22.32
2019-03-13T16:09:46.922Z,26.70
2019-03-13T16:12:16.046Z,23.47
2019-03-13T16:14:45.435Z,25.60
2019-03-13T16:17:14.953Z,24.47
2019-03-13T16:22:14.171Z,22.82
2019-03-13T16:24:43.253Z,15.85
2019-03-13T16:31:18.363Z,14.65
2019-03-13T16:33:47.462Z,14.93
2019-03-13T16:36:16.590Z,11.65
2019-03-13T16:38:45.732Z,14.75
2019-03-13T16:41:14.948Z,11.80
2019-03-13T16:43:45.841Z,14.98
2019-03-13T16:46:15.031Z,11.05
2019-03-13T16:48:44.350Z,13.08
2019-03-13T16:51:22.231Z,10.40
2019-03-13T16:53:51.770Z,13.75
2019-03-13T16:58:51.146Z,12.55
2019-03-13T17:01:20.269Z,8.75
2019-03-13T17:03:50.454Z,7.28
2019-03-13T17:06:21.838Z,10.25
2019-03-13T17:08:50.948Z,8.18
2019-03-13T17:11:21.511Z,8.18
2019-03-13T17:13:50.884Z,10.65
2019-03-13T17:16:21.935Z,7.55
2019-03-13T17:18:51.221Z,15.55
2019-03-13T17:21:20.391Z,13.45
2019-03-13T17:23:49.777Z,13.10
2019-03-13T17:26:18.902Z,10.90
2019-03-13T17:28:50.291Z,12.45
2019-03-13T17:31:19.457Z,12.10
2019-03-13T17:33:50.029Z,12.23
2019-03-13T17:36:20.707Z,9.28
2019-03-13T17:38:53.992Z,9.45
2019-03-13T17:41:23.199Z,8.43
2019-03-13T17:43:52.346Z,11.05
2019-03-13T17:46:21.548Z,9.70
2019-03-13T17:48:51.169Z,11.63
2019-03-13T17:51:20.347Z,25.68
2019-03-13T17:53:49.555Z,18.32
2019-03-13T17:56:18.648Z,17.92
2019-03-13T17:58:47.793Z,16.02
2019-03-13T18:01:16.992Z,21.35
2019-03-13T18:03:46.372Z,32.40
2019-03-13T18:06:15.480Z,15.55
2019-03-13T18:08:44.618Z,12.13
2019-03-13T18:11:13.727Z,11.38
2019-03-13T18:13:42.845Z,13.38
2019-03-13T18:16:11.978Z,17.23
2019-03-13T18:18:41.392Z,15.45
2019-03-13T18:21:10.501Z,13.50
2019-03-13T18:23:39.636Z,15.78
2019-03-13T18:26:08.825Z,10.28
2019-03-13T18:28:37.918Z,11.73
2019-03-13T18:31:07.092Z,16.65
2019-03-13T18:33:36.248Z,10.60
2019-03-13T18:36:05.364Z,9.90
2019-03-13T18:38:34.307Z,15.03
2019-03-13T18:41:03.180Z,12.65
2019-03-13T18:43:32.057Z,9.13
2019-03-13T18:46:00.919Z,14.03
2019-03-13T18:48:30.004Z,12.13
2019-03-13T18:50:59.151Z,12.90
2019-03-13T18:53:28.304Z,9.13
2019-03-13T18:55:57.411Z,9.75
2019-03-13T18:58:26.567Z,14.20
2019-03-13T19:00:58.247Z,17.17
2019-03-13T19:03:26.824Z,10.80
2019-03-13T19:05:55.918Z,7.85
2019-03-13T19:08:27.021Z,11.30
2019-03-13T19:10:55.906Z,9.30
2019-03-13T19:13:25.056Z,9.30
2019-03-13T19:15:54.187Z,9.10
2019-03-13T19:18:23.308Z,12.43
2019-03-13T19:20:53.867Z,13.58
2019-03-13T19:23:23.262Z,11.65
2019-03-13T19:25:52.403Z,9.60
2019-03-13T19:28:21.563Z,8.80
2019-03-13T19:30:50.919Z,12.47
2019-03-13T19:33:20.015Z,11.03
2019-03-13T19:35:49.153Z,12.25
2019-03-13T19:38:18.311Z,20.48
2019-03-13T19:40:47.422Z,14.93
2019-03-13T19:43:16.528Z,9.35
2019-03-13T19:45:47.576Z,17.77
2019-03-13T19:48:16.705Z,13.50
2019-03-13T19:50:46.057Z,14.60
2019-03-13T19:53:15.204Z,12.90
2019-03-13T19:55:44.351Z,16.23
2019-03-13T19:58:13.467Z,14.60
2019-03-13T20:00:42.633Z,12.47
2019-03-13T20:03:17.969Z,18.25
2019-03-13T20:05:47.124Z,10.10
2019-03-13T20:08:16.256Z,10.30
2019-03-13T20:10:45.360Z,8.80
2019-03-13T20:13:14.487Z,8.80
2019-03-13T20:15:43.642Z,10.95
2019-03-13T20:18:12.741Z,9.45
2019-03-13T20:20:41.870Z,12.23
2019-03-13T20:23:13.904Z,10.75
2019-03-13T20:25:43.053Z,12.37
2019-03-13T20:28:12.170Z,20.97
2019-03-13T20:30:41.319Z,12.93
2019-03-13T20:33:10.447Z,15.15
2019-03-13T20:35:39.580Z,8.95
2019-03-13T20:40:38.103Z,10.30
2019-03-13T20:43:07.239Z,5.87
2019-03-13T20:45:36.360Z,12.65
2019-03-13T20:48:05.510Z,10.63
2019-03-13T20:50:37.841Z,11.93
2019-03-13T20:53:05.499Z,7.58
2019-03-13T20:55:34.615Z,10.58
2019-03-13T20:58:03.763Z,15.08
2019-03-13T21:00:34.735Z,8.85
2019-03-13T21:03:03.737Z,12.13
2019-03-13T21:05:32.868Z,5.92
2019-03-13T21:08:02.004Z,17.82
2019-03-13T21:10:31.111Z,8.40
2019-03-13T21:13:00.236Z,6.70
2019-03-13T21:15:29.547Z,5.90
2019-03-13T21:17:58.646Z,8.13
2019-03-13T21:20:27.780Z,7.75
2019-03-13T21:22:58.413Z,7.12
2019-03-13T21:25:28.015Z,3.70
2019-03-13T21:27:57.159Z,7.62
2019-03-13T21:30:28.640Z,9.18
2019-03-13T21:32:59.070Z,2.95
2019-03-13T21:35:28.209Z,8.00
2019-03-13T21:37:57.353Z,8.50
2019-03-13T21:40:27.779Z,5.90
2019-03-13T21:42:56.891Z,5.58
2019-03-13T21:45:26.276Z,4.72
2019-03-13T21:47:55.428Z,4.12
2019-03-13T21:50:24.577Z,4.78
2019-03-13T21:52:53.688Z,6.55
2019-03-13T21:55:22.811Z,9.00
2019-03-13T21:57:52.543Z,10.18
2019-03-13T22:00:28.169Z,9.05
2019-03-13T22:02:57.303Z,8.85
2019-03-13T22:05:27.376Z,6.08
2019-03-13T22:07:56.815Z,7.97
2019-03-13T22:10:25.941Z,9.75
2019-03-13T22:12:55.058Z,5.80
2019-03-13T22:15:24.670Z,10.43
2019-03-13T22:17:53.810Z,7.78
2019-03-13T22:20:22.940Z,5.72
2019-03-13T22:22:57.948Z,3.52
2019-03-13T22:25:27.169Z,4.50
2019-03-13T22:27:56.303Z,12.65
2019-03-13T22:30:28.772Z,3.52
2019-03-13T22:32:56.914Z,2.40
2019-03-13T22:35:26.030Z,8.90
2019-03-13T22:37:55.148Z,6.95
2019-03-13T22:40:24.305Z,3.85
2019-03-13T22:42:53.424Z,8.98
2019-03-13T22:45:22.805Z,4.53
2019-03-13T22:47:51.716Z,6.40
2019-03-13T22:50:25.243Z,10.10
2019-03-13T22:52:54.454Z,7.12
2019-03-13T22:55:23.572Z,4.87
2019-03-13T22:57:52.683Z,6.08
2019-03-13T23:00:36.329Z,2.25
2019-03-13T23:03:05.457Z,3.60
2019-03-13T23:05:36.122Z,4.28
2019-03-13T23:08:05.302Z,2.92
2019-03-13T23:10:35.520Z,5.35
2019-03-13T23:13:04.872Z,5.50
2019-03-13T23:15:34.025Z,7.10
2019-03-13T23:18:03.137Z,4.95
2019-03-13T23:20:32.241Z,2.08
2019-03-13T23:23:01.526Z,5.08
2019-03-13T23:25:30.639Z,3.98
2019-03-13T23:27:59.754Z,5.05
2019-03-13T23:30:28.897Z,8.43
2019-03-13T23:32:58.031Z,3.67
2019-03-13T23:35:27.145Z,6.47
2019-03-13T23:37:56.284Z,2.80
2019-03-13T23:40:25.402Z,3.25
2019-03-13T23:42:54.523Z,5.62
2019-03-13T23:45:23.657Z,3.95
2019-03-13T23:47:52.767Z,2.65
2019-03-13T23:50:21.894Z,3.95
2019-03-13T23:52:51.027Z,5.12
2019-03-13T23:55:20.145Z,3.15
2019-03-13T23:57:49.270Z,9.20
